Latest Weather Observations for Dalby

IDQ60801

Issued at 2:35 pm EST Wednesday 3 September 2014 (issued every 30 minutes, with the page automatically refreshed every 10 minutes)

About weather observations | Map of weather stations | Latest weather observations for QLD | Other Formats
Station Details ID: 041522 Name: DALBY AIRPORT Lat: -27.16 Lon: 151.26 Height: 343.9 m
Data from the previous 72 hours. | See also: Recent months at Dalby
Date/Time
EST
Temp
°C
App
Temp
°C
Dew
Point
Rel
Hum
%
Delta-T
°C
Wind Press
QNH
hPa
Press
MSL
hPa
Rain
since 9 am
mm
Dir
 
Spd
km/h
Gust
km/h
Spd
kts
Gust
kts
03/02:30pm 18.0 9.3 -3.4 23 8.8 SW 33 44 18 24 1013.3 1012.4 0.0
03/02:14pm 18.4 9.0 -2.5 24 8.8 SW 37 57 20 31 1013.2 1012.3 0.0
03/02:00pm 18.2 9.2 -2.7 24 8.8 WSW 35 52 19 28 1013.4 1012.6 0.0
03/01:50pm 18.3 9.2 -3.2 23 8.9 SW 35 54 19 29 1013.6 1012.8 0.0
03/01:30pm 17.7 8.2 -3.7 23 8.7 WSW 37 54 20 29 1013.6 1012.8 0.0
03/01:00pm 17.7 8.7 -3.1 24 8.6 WSW 35 48 19 26 1013.7 1012.9 0.0
03/12:30pm 17.2 7.9 -2.4 26 8.2 WSW 37 48 20 26 1013.9 1013.1 0.0
03/12:25pm 17.6 9.2 -1.1 28 8.1 WSW 33 44 18 24 1014.0 1013.2 0.0
03/12:20pm 17.0 6.5 -2.6 26 8.1 SSW 43 50 23 27 1014.0 1013.2 0.0
03/12:00pm 17.1 8.9 -1.1 29 7.8 WSW 32 44 17 24 1014.4 1013.6 0.0
03/11:30am 16.4 6.5 -1.2 30 7.5 SW 41 61 22 33 1015.0 1014.1 0.0
03/11:24am 16.1 6.5 -1.5 30 7.4 SW 39 61 21 33 1015.0 1014.1 0.0
03/11:00am 15.6 6.1 -1.0 32 7.0 WSW 39 52 21 28 1015.7 1014.8 0.0
03/10:30am 14.9 5.8 -0.8 34 6.6 SW 37 50 20 27 1015.9 1015.0 0.0
03/10:00am 14.1 4.6 -0.7 36 6.2 SW 39 50 21 27 1016.2 1015.4 0.0
03/09:30am 13.6 4.5 -0.8 37 6.0 SW 37 50 20 27 1016.3 1015.5 0.0
03/09:00am 12.9 4.2 -0.4 40 5.6 WSW 35 44 19 24 1016.5 1015.7 0.0
03/08:30am 11.8 3.8 0.6 46 4.7 SW 32 43 17 23 1016.7 1015.9 0.0
03/08:00am 10.5 2.6 1.1 52 4.0 WSW 32 41 17 22 1016.7 1015.9 0.0
03/07:30am 9.4 3.9 1.8 59 3.2 WSW 20 32 11 17 1016.5 1015.7 0.0
03/07:00am 7.6 2.6 1.2 64 2.6 W 17 20 9 11 1016.4 1015.6 0.0
03/06:30am 5.5 0.8 0.9 72 1.8 W 15 17 8 9 1016.3 1015.5 0.0
03/06:00am 5.2 0.8 0.6 72 1.8 WSW 13 19 7 10 1016.0 1015.2 0.0
03/05:30am 5.1 0.3 0.1 70 2.0 W 15 17 8 9 1015.8 1014.9 0.0
03/05:00am 5.6 0.8 0.4 69 2.1 W 15 17 8 9 1015.4 1014.5 0.0
03/04:30am 6.1 1.3 0.4 67 2.3 W 15 17 8 9 1015.2 1014.3 0.0
03/04:00am 6.9 2.2 0.6 64 2.5 W 15 19 8 10 1015.0 1014.1 0.0
03/03:30am 6.8 2.1 0.7 65 2.5 W 15 17 8 9 1014.9 1014.0 0.0
03/03:00am 6.8 2.1 0.9 66 2.4 W 15 19 8 10 1015.1 1014.2 0.0
03/02:30am 7.0 2.3 0.9 65 2.5 W 15 17 8 9 1015.3 1014.4 0.0
03/02:00am 8.4 3.6 0.1 56 3.4 WSW 15 17 8 9 1015.7 1014.8 0.0
03/01:30am 9.5 4.4 0.7 54 3.7 WSW 17 22 9 12 1016.0 1015.2 0.0
03/01:00am 9.3 4.6 0.7 55 3.6 WSW 15 20 8 11 1016.1 1015.3 0.0
03/12:30am 9.8 4.6 0.4 52 3.9 WSW 17 20 9 11 1016.2 1015.4 0.0
03/12:00am 10.7 5.0 0.4 49 4.3 WSW 20 26 11 14 1016.3 1015.5 0.0
 
Date/Time
EST
Temp
°C
App
Temp
°C
Dew
Point
Rel
Hum
%
Delta-T
°C
Wind Press
QNH
hPa
Press
MSL
hPa
Rain
since 9 am
mm
Dir
 
Spd
km/h
Gust
km/h
Spd
kts
Gust
kts
02/11:30pm 11.0 5.5 0.4 48 4.4 WSW 19 22 10 12 1016.1 1015.3 0.0
02/11:00pm 11.4 5.8 -0.1 45 4.8 WSW 19 24 10 13 1016.2 1015.4 0.0
02/10:30pm 12.0 6.4 0.1 44 5.0 WSW 19 24 10 13 1016.4 1015.6 0.0
02/10:00pm 12.8 7.0 0.2 42 5.3 WSW 20 30 11 16 1016.4 1015.6 0.0
02/09:30pm 13.5 7.0 0.2 40 5.7 SW 24 33 13 18 1016.3 1015.5 0.0
02/09:00pm 14.2 8.6 0.1 38 6.0 WSW 19 26 10 14 1016.0 1015.2 0.0
02/08:30pm 14.7 8.5 -0.2 36 6.4 WSW 22 28 12 15 1015.8 1014.9 0.0
02/08:00pm 15.3 8.3 -0.4 34 6.7 SW 26 35 14 19 1015.6 1014.7 0.0
02/07:30pm 15.8 8.1 -0.4 33 7.0 SW 30 39 16 21 1015.2 1014.3 0.0
02/07:00pm 16.4 8.6 -0.8 31 7.4 SW 30 41 16 22 1014.5 1013.7 0.0
02/06:30pm 16.8 9.4 -0.4 31 7.5 WSW 28 39 15 21 1013.6 1012.8 0.0
02/06:00pm 17.7 9.3 -1.0 28 8.1 WSW 33 46 18 25 1013.2 1012.3 0.0
02/05:30pm 18.6 9.5 -0.7 27 8.5 WSW 37 50 20 27 1012.6 1011.7 0.0
02/05:00pm 19.7 10.7 0.2 27 8.8 WSW 37 52 20 28 1012.1 1011.2 0.0
02/04:30pm 21.1 12.6 2.9 30 8.7 WSW 37 48 20 26 1011.5 1010.7 0.0
02/04:00pm 21.8 13.7 3.0 29 9.1 WSW 35 46 19 25 1011.2 1010.4 0.0
02/03:43pm 22.0 13.0 2.7 28 9.3 W 39 57 21 31 1011.0 1010.2 0.0
02/03:30pm 22.2 13.3 2.8 28 9.4 W 39 54 21 29 1010.8 1009.9 0.0
02/03:00pm 22.8 13.0 2.3 26 9.9 WSW 43 57 23 31 1010.8 1009.9 0.0
02/02:30pm 23.2 13.9 0.3 22 10.6 WSW 39 56 21 30 1010.6 1009.7 0.0
02/02:23pm 23.6 15.1 0.7 22 10.7 WSW 35 56 19 30 1010.7 1009.8 0.0
02/02:00pm 23.6 14.5 -0.6 20 11.1 WSW 37 50 20 27 1010.7 1009.8 0.0
02/01:32pm 24.6 14.4 -0.5 19 11.6 W 43 69 23 37 1010.5 1009.6 0.0
02/01:30pm 24.1 13.6 -2.4 17 11.8 W 43 56 23 30 1010.5 1009.6 0.0
02/01:13pm 25.3 15.4 -0.7 18 12.0 W 41 61 22 33 1010.4 1009.5 0.0
02/01:00pm 25.1 14.8 -0.9 18 12.0 W 43 54 23 29 1010.3 1009.4 0.0
02/12:41pm 25.3 15.7 -1.5 17 12.2 W 39 48 21 26 1010.5 1009.6 0.0
02/12:30pm 25.3 16.7 0.0 19 11.9 WNW 35 52 19 28 1010.5 1009.6 0.0
02/12:09pm 24.8 16.1 1.7 22 11.1 WNW 37 56 20 30 1011.0 1010.2 0.0
02/12:00pm 24.6 14.9 0.8 21 11.3 WNW 41 56 22 30 1011.2 1010.4 0.0
02/11:48am 24.8 16.4 1.7 22 11.1 WNW 35 54 19 29 1011.4 1010.6 0.0
02/11:32am 24.1 16.4 2.3 24 10.6 W 32 44 17 24 1011.8 1010.9 0.0
02/11:30am 24.5 15.5 2.6 24 10.7 NW 39 54 21 29 1011.9 1011.0 0.0
02/11:00am 23.0 14.6 3.5 28 9.6 NW 37 46 20 25 1012.2 1011.3 0.0
02/10:52am 22.4 13.7 4.0 30 9.1 NW 39 57 21 31 1012.5 1011.6 0.0
02/10:30am 21.9 12.4 4.9 33 8.5 NW 44 59 24 32 1012.9 1012.0 0.0
02/10:00am 20.7 11.6 6.6 40 7.3 NNW 44 57 24 31 1013.3 1012.4 0.0
02/09:30am 18.3 10.5 6.8 47 5.8 NNW 37 48 20 26 1013.3 1012.4 0.0
02/09:00am 17.2 9.4 6.7 50 5.3 NNW 37 48 20 26 1013.5 1012.7 0.0
02/08:30am 16.4 9.4 6.8 53 4.8 NNW 33 43 18 23 1013.7 1012.9 0.0
02/08:00am 15.3 8.4 6.6 56 4.3 N 32 41 17 22 1013.8 1013.0 0.0
02/07:30am 14.6 8.4 6.2 57 4.1 N 28 37 15 20 1014.1 1013.3 0.0
02/07:00am 13.9 8.0 5.8 58 3.9 N 26 32 14 17 1014.2 1013.4 0.0
02/06:30am 13.2 7.5 5.1 58 3.8 N 24 30 13 16 1014.2 1013.4 0.0
02/06:00am 12.8 7.5 4.8 58 3.8 N 22 28 12 15 1014.0 1013.2 0.0
02/05:30am 12.3 7.3 4.5 59 3.6 N 20 26 11 14 1013.9 1013.1 0.0
02/05:00am 11.9 7.5 4.6 61 3.4 N 17 24 9 13 1013.8 1013.0 0.0
02/04:30am 12.0 7.5 4.2 59 3.6 N 17 20 9 11 1014.0 1013.2 0.0
02/04:00am 12.8 8.0 4.8 58 3.8 N 19 20 10 11 1013.8 1013.0 0.0
02/03:30am 13.3 8.5 4.7 56 4.0 N 19 24 10 13 1013.8 1013.0 0.0
02/03:00am 13.7 8.8 5.1 56 4.1 N 20 26 11 14 1014.0 1013.2 0.0
02/02:30am 13.4 8.5 5.1 57 3.9 N 20 24 11 13 1014.3 1013.5 0.0
02/02:00am 14.2 9.4 5.6 56 4.1 N 20 24 11 13 1014.3 1013.5 0.0
02/01:30am 14.4 10.2 5.5 55 4.3 N 17 22 9 12 1014.7 1013.9 0.0
02/01:00am 14.2 9.6 5.6 56 4.1 N 19 20 10 11 1015.1 1014.2 0.0
02/12:30am 12.8 8.3 4.0 55 4.1 N 17 19 9 10 1015.2 1014.3 0.0
02/12:00am 14.2 9.1 2.8 46 5.2 N 19 22 10 12 1015.6 1014.7 0.0
 
Date/Time
EST
Temp
°C
App
Temp
°C
Dew
Point
Rel
Hum
%
Delta-T
°C
Wind Press
QNH
hPa
Press
MSL
hPa
Rain
since 9 am
mm
Dir
 
Spd
km/h
Gust
km/h
Spd
kts
Gust
kts
01/11:30pm 15.1 9.5 3.3 45 5.5 N 22 28 12 15 1015.4 1014.5 0.0
01/11:20pm 13.9 9.2 5.3 56 4.1 N 19 28 10 15 1015.6 1014.7 0.0
01/11:00pm 8.5 4.2 0.7 58 3.2 N 13 15 7 8 1015.8 1014.9 0.0
01/10:30pm 9.4 5.4 0.8 55 3.6 NE 11 13 6 7 1015.7 1014.8 0.0
01/10:00pm 9.5 5.2 0.9 55 3.6 NE 13 15 7 8 1015.7 1014.8 0.0
01/09:30pm 9.7 6.1 0.6 53 3.8 NE 9 11 5 6 1015.8 1014.9 0.0
01/09:00pm 13.0 8.6 0.1 41 5.5 NNE 13 15 7 8 1015.8 1014.9 0.0
01/08:30pm 12.9 9.1 -0.4 40 5.6 N 9 11 5 6 1016.1 1015.3 0.0
01/08:00pm 12.8 7.5 -0.8 39 5.6 N 17 19 9 10 1015.9 1015.0 0.0
01/07:30pm 17.0 11.7 -0.7 30 7.6 NW 17 20 9 11 1015.9 1015.0 0.0
01/07:00pm 16.6 12.1 -0.6 31 7.4 NW 13 15 7 8 1015.8 1014.9 0.0
01/06:30pm 17.7 12.3 -1.0 28 8.1 N 17 17 9 9 1015.6 1014.7 0.0
01/06:00pm 18.8 13.9 -0.6 27 8.5 NNW 15 17 8 9 1015.3 1014.4 0.0
01/05:30pm 21.8 16.5 -0.8 22 10.2 NNW 17 20 9 11 1015.1 1014.2 0.0
01/05:00pm 23.8 18.4 -1.2 19 11.3 NNW 17 26 9 14 1015.1 1014.2 0.0
01/04:30pm 24.5 18.5 -1.3 18 11.7 NW 20 26 11 14 1015.1 1014.2 0.0
01/04:00pm 24.8 18.5 -1.1 18 11.9 NNW 22 30 12 16 1014.7 1013.9 0.0
01/03:30pm 24.9 19.2 -1.0 18 11.9 NNW 19 32 10 17 1014.7 1013.9 0.0
01/03:00pm 24.3 18.5 -1.5 18 11.7 NW 19 28 10 15 1014.9 1014.0 0.0
01/02:30pm 24.6 18.6 -1.3 18 11.8 WNW 20 37 11 20 1015.2 1014.3 0.0
01/02:00pm 24.8 18.8 -1.9 17 12.0 NW 20 28 11 15 1015.5 1014.6 0.0
01/01:30pm 25.2 18.8 0.7 20 11.6 NNW 24 35 13 19 1015.9 1015.0 0.0
01/01:00pm 24.5 19.0 0.8 21 11.2 WNW 19 30 10 16 1016.6 1015.8 0.0
01/12:30pm 24.0 17.5 0.4 21 11.0 WNW 24 33 13 18 1017.2 1016.4 0.0
01/12:00pm 23.9 16.9 2.1 24 10.5 WNW 28 37 15 20 1018.0 1017.1 0.0
01/11:30am 23.2 17.7 2.1 25 10.1 NNW 20 32 11 17 1018.3 1017.4 0.0
01/11:00am 22.0 16.9 4.1 31 8.8 NW 20 26 11 14 1018.6 1017.8 0.0
01/10:30am 20.7 15.8 4.3 34 8.1 NNW 19 24 10 13 1018.6 1017.8 0.0
01/10:00am 19.8 14.6 5.5 39 7.1 NNW 22 28 12 15 1019.2 1018.4 0.0
01/09:30am 18.7 13.6 6.2 44 6.3 NNW 22 28 12 15 1019.9 1019.7 0.0
01/09:00am 17.4 12.4 6.3 48 5.5 NNW 22 28 12 15 1020.1 1019.9 0.0
01/08:30am 15.9 11.6 7.1 56 4.4 NNW 19 24 10 13 1020.2 1020.0 0.0
01/08:00am 14.2 12.0 7.7 65 3.3 NW 9 13 5 7 1019.8 1019.6 0.0
01/07:30am 11.5 11.1 8.2 80 1.6 CALM 0 0 0 0 1019.5 1019.3 0.0
01/07:00am 8.5 7.4 7.0 90 0.7 S 2 7 1 4 1019.0 1018.8 0.0
01/06:30am 6.2 3.8 4.5 89 0.7 S 6 7 3 4 1018.8 1018.5 0.0
01/06:00am 5.7 3.2 3.7 87 0.9 S 6 7 3 4 1018.3 1018.0 0.0
01/05:30am 5.2 2.4 3.2 87 0.8 SE 7 7 4 4 1017.9 1017.6 0.0
01/05:00am 6.3 3.7 4.0 85 1.0 SE 7 11 4 6 1017.6 1017.4 0.0
01/04:30am 6.5 3.9 4.2 85 1.0 SSE 7 9 4 5 1017.9 1017.6 0.0
01/04:00am 6.9 4.4 4.6 85 1.0 SE 7 9 4 5 1017.6 1017.4 0.0
01/03:30am 9.3 8.5 6.6 83 1.3 CALM 0 0 0 0 1017.5 1017.3 0.0
01/03:00am 9.0 7.8 6.6 85 1.1 WNW 2 7 1 4 1017.9 1017.6 0.0
01/02:30am 9.9 6.6 6.6 80 1.6 NW 13 17 7 9 1018.0 1017.7 0.0
01/02:00am 10.1 6.9 6.8 80 1.6 NNW 13 13 7 7 1018.2 1017.9 0.0
01/01:30am 11.1 7.7 5.8 70 2.5 N 13 15 7 8 1018.2 1017.9 0.0
01/01:00am 12.9 9.1 7.6 70 2.6 N 17 19 9 10 1018.2 1017.9 0.0
01/12:30am 12.8 9.0 7.7 71 2.5 N 17 19 9 10 1018.3 1018.0 0.0
01/12:00am 9.4 6.3 3.4 66 2.6 N 9 13 5 7 1018.5 1018.2 0.0
 
Date/Time
EST
Temp
°C
App
Temp
°C
Dew
Point
Rel
Hum
%
Delta-T
°C
Wind Press
QNH
hPa
Press
MSL
hPa
Rain
since 9 am
mm
Dir
 
Spd
km/h
Gust
km/h
Spd
kts
Gust
kts
31/11:30pm 8.8 4.9 3.4 69 2.4 NE 13 15 7 8 1018.5 1018.2 0.0
31/11:00pm 9.8 6.2 2.9 62 3.0 NE 11 15 6 8 1018.1 1017.8 0.0
31/10:30pm 12.1 9.6 3.6 56 3.9 NW 6 7 3 4 1017.9 1017.6 0.0
31/10:00pm 12.1 8.9 3.3 55 4.0 NNW 9 13 5 7 1018.0 1017.7 0.0
31/09:30pm 15.6 11.8 3.7 45 5.6 SW 13 13 7 7 1018.0 1017.7 0.0
31/09:00pm 15.0 11.3 4.7 50 4.9 W 13 15 7 8 1018.1 1017.8 0.0
31/08:30pm 15.0 11.7 4.7 50 4.9 W 11 13 6 7 1018.0 1017.7 0.0
31/08:00pm 15.0 12.0 4.1 48 5.1 SW 9 13 5 7 1017.7 1017.5 0.0
31/07:30pm 14.7 11.1 2.9 45 5.4 N 11 13 6 7 1017.5 1017.3 0.0
31/07:00pm 15.0 11.9 3.5 46 5.3 N 9 11 5 6 1017.0 1016.8 0.0
31/06:30pm 15.9 12.3 3.0 42 6.0 N 11 13 6 7 1016.7 1016.5 0.0
31/06:00pm 18.2 14.7 3.3 37 7.1 N 11 13 6 7 1016.4 1016.2 0.0
31/05:30pm 20.1 17.3 2.9 32 8.2 N 7 9 4 5 1016.2 1015.9 0.0
31/05:00pm 22.5 19.6 2.6 27 9.6 N 7 11 4 6 1016.1 1015.8 0.0
31/04:30pm 23.5 20.8 2.9 26 10.1 SW 6 9 3 5 1015.9 1015.6 0.0
31/04:00pm 23.6 20.9 3.5 27 9.9 SW 7 11 4 6 1015.8 1015.5 0.0
31/03:30pm 22.3 19.0 2.4 27 9.6 WSW 9 15 5 8 1015.8 1015.5 0.0
31/03:00pm 23.5 20.9 4.0 28 9.7 ENE 7 13 4 7 1015.7 1015.4 0.0

Other Formats:

Comma delimited format used in spreadsheet applications
http://www.bom.gov.au/fwo/IDQ60801/IDQ60801.94542.axf

JavaScript Object Notation format (JSON) in row-major order
http://www.bom.gov.au/fwo/IDQ60801/IDQ60801.94542.json